createdAt,value
2022-10-15T00:00:40.228Z,101180.00
2022-10-15T00:03:35.415Z,101184.01
2022-10-15T00:06:23.544Z,101183.52
2022-10-15T00:09:18.317Z,101175.09
2022-10-15T00:12:07.094Z,101169.63
2022-10-15T00:14:55.618Z,101172.83
2022-10-15T00:17:44.336Z,101166.86
2022-10-15T00:20:32.435Z,101170.02
2022-10-15T00:23:21.375Z,101153.97
2022-10-15T00:26:13.083Z,101148.16
2022-10-15T00:29:01.788Z,101148.52
2022-10-15T00:31:50.261Z,101149.70
2022-10-15T00:34:38.713Z,101150.05
2022-10-15T00:37:27.564Z,101153.39
2022-10-15T00:40:15.886Z,101156.20
2022-10-15T00:43:03.825Z,101150.25
2022-10-15T00:45:51.813Z,101147.78
2022-10-15T00:48:41.044Z,101144.97
2022-10-15T00:51:45.168Z,101153.28
2022-10-15T00:54:38.630Z,101145.66
2022-10-15T00:57:27.130Z,101151.31
2022-10-15T01:00:19.421Z,101149.84
2022-10-15T01:03:08.206Z,101150.00
2022-10-15T01:05:57.214Z,101147.69
2022-10-15T01:08:45.916Z,101144.22
2022-10-15T01:11:41.153Z,101145.37
2022-10-15T01:14:40.082Z,101146.70
2022-10-15T01:17:35.319Z,101146.05
2022-10-15T01:20:49.050Z,101142.92
2022-10-15T01:24:26.506Z,101146.08
2022-10-15T01:27:31.204Z,101143.61
2022-10-15T01:30:30.437Z,101141.11
2022-10-15T01:33:32.269Z,101147.59
2022-10-15T01:36:27.672Z,101145.10
2022-10-15T01:39:22.075Z,101141.13
2022-10-15T01:42:17.614Z,101143.97
2022-10-15T01:45:10.855Z,101149.42
2022-10-15T01:48:21.324Z,101146.95
2022-10-15T01:51:13.375Z,101147.30
2022-10-15T01:54:02.345Z,101139.49
2022-10-15T01:56:51.678Z,101148.63
2022-10-15T01:59:43.446Z,101144.31
2022-10-15T02:02:31.639Z,101150.77
2022-10-15T02:05:25.750Z,101145.80
2022-10-15T02:08:27.921Z,101149.78
2022-10-15T02:11:18.896Z,101153.77
2022-10-15T02:14:13.822Z,101151.45
2022-10-15T02:17:09.611Z,101149.98
2022-10-15T02:20:05.405Z,101144.02
2022-10-15T02:23:01.551Z,101141.52
2022-10-15T02:25:52.534Z,101145.49
2022-10-15T02:28:44.424Z,101143.02
2022-10-15T02:31:35.507Z,101137.06
2022-10-15T02:34:29.717Z,101138.87
2022-10-15T02:37:23.256Z,101138.20
2022-10-15T02:40:12.481Z,101141.70
2022-10-15T02:43:03.532Z,101142.03
2022-10-15T02:45:52.001Z,101141.52
2022-10-15T02:48:41.830Z,101138.39
2022-10-15T02:51:33.870Z,101147.33
2022-10-15T02:54:21.919Z,101131.91
2022-10-15T02:57:10.867Z,101140.05
2022-10-15T03:00:00.565Z,101134.23
2022-10-15T03:02:49.350Z,101140.52
2022-10-15T03:05:40.323Z,101138.35
2022-10-15T03:08:29.166Z,101135.85
2022-10-15T03:11:17.722Z,101137.84
2022-10-15T03:14:05.862Z,101137.17
2022-10-15T03:16:55.568Z,101134.85
2022-10-15T03:19:44.507Z,101126.42
2022-10-15T03:22:32.937Z,101130.20
2022-10-15T03:25:21.736Z,101134.84
2022-10-15T03:28:13.245Z,101135.02
2022-10-15T03:31:02.551Z,101134.50
2022-10-15T03:33:51.403Z,101138.32
2022-10-15T03:36:42.350Z,101135.16
2022-10-15T03:39:31.671Z,101144.09
2022-10-15T03:42:23.422Z,101146.07
2022-10-15T03:45:12.540Z,101141.95
2022-10-15T03:48:01.216Z,101148.23
2022-10-15T03:50:51.498Z,101149.37
2022-10-15T03:53:40.391Z,101144.25
2022-10-15T03:56:28.559Z,101142.73
2022-10-15T03:59:22.312Z,101140.41
2022-10-15T04:02:16.980Z,101139.75
2022-10-15T04:05:07.182Z,101148.01
2022-10-15T04:07:58.184Z,101150.80
2022-10-15T04:10:47.119Z,101145.83
2022-10-15T04:13:35.569Z,101152.95
2022-10-15T04:16:24.042Z,101150.63
2022-10-15T04:19:13.004Z,101145.66
2022-10-15T04:22:01.333Z,101147.64
2022-10-15T04:24:58.076Z,101153.25
2022-10-15T04:27:48.528Z,101149.09
2022-10-15T04:30:38.726Z,101151.91
2022-10-15T04:33:29.502Z,101157.34
2022-10-15T04:36:21.198Z,101157.66
2022-10-15T04:39:16.064Z,101162.46
2022-10-15T04:42:05.926Z,101160.80
2022-10-15T04:44:55.195Z,101161.94
2022-10-15T04:47:43.436Z,101166.55
2022-10-15T04:50:37.759Z,101165.88
2022-10-15T04:53:52.935Z,101171.34
2022-10-15T04:56:41.320Z,101176.78
2022-10-15T04:59:29.586Z,101177.94
2022-10-15T05:02:41.395Z,101176.42
2022-10-15T05:05:37.106Z,101181.89
2022-10-15T05:08:29.121Z,101180.37
2022-10-15T05:11:43.140Z,101182.34
2022-10-15T05:14:35.317Z,101180.69
2022-10-15T05:17:27.207Z,101185.30
2022-10-15T05:20:16.139Z,101179.20
2022-10-15T05:23:05.933Z,101178.35
2022-10-15T05:25:55.500Z,101175.56
2022-10-15T05:28:45.399Z,101180.86
2022-10-15T05:31:41.992Z,101185.16
2022-10-15T05:34:50.105Z,101186.64
2022-10-15T05:37:38.577Z,101188.16
2022-10-15T05:40:27.726Z,101187.00
2022-10-15T05:43:38.880Z,101195.30
2022-10-15T05:46:31.879Z,101198.48
2022-10-15T05:49:19.769Z,101192.70
2022-10-15T05:52:13.774Z,101205.47
2022-10-15T05:55:21.235Z,101206.64
2022-10-15T05:58:09.623Z,101206.00
2022-10-15T06:00:59.912Z,101205.23
2022-10-15T06:03:47.840Z,101200.95
2022-10-15T06:06:35.804Z,101206.28
2022-10-15T06:09:25.029Z,101206.98
2022-10-15T06:12:13.013Z,101207.00
2022-10-15T06:15:00.893Z,101210.86
2022-10-15T06:17:51.872Z,101211.91
2022-10-15T06:20:40.179Z,101215.73
2022-10-15T06:23:28.816Z,101215.08
2022-10-15T06:26:16.896Z,101215.41
2022-10-15T06:29:06.916Z,101216.58
2022-10-15T06:31:55.313Z,101221.36
2022-10-15T06:34:43.212Z,101225.33
2022-10-15T06:37:31.549Z,101224.48
2022-10-15T06:40:20.592Z,101221.95
2022-10-15T06:43:11.555Z,101234.36
2022-10-15T06:46:01.338Z,101231.45
2022-10-15T06:48:51.334Z,101230.88
2022-10-15T06:51:39.421Z,101233.94
2022-10-15T06:54:27.443Z,101235.50
2022-10-15T06:57:16.135Z,101236.06
2022-10-15T07:00:05.331Z,101238.41
2022-10-15T07:02:53.920Z,101233.95
2022-10-15T07:05:42.061Z,101231.51
2022-10-15T07:08:30.459Z,101235.86
2022-10-15T07:11:18.973Z,101236.06
2022-10-15T07:14:07.144Z,101241.38
2022-10-15T07:16:56.313Z,101248.38
2022-10-15T07:19:44.471Z,101238.91
2022-10-15T07:22:32.664Z,101232.76
2022-10-15T07:25:20.737Z,101239.06
2022-10-15T07:28:09.099Z,101235.73
2022-10-15T07:31:02.928Z,101239.56
2022-10-15T07:33:50.900Z,101234.36
2022-10-15T07:36:39.418Z,101245.80
2022-10-15T07:39:29.088Z,101242.41
2022-10-15T07:42:17.525Z,101243.55
2022-10-15T07:45:08.462Z,101243.86
2022-10-15T07:47:56.402Z,101238.20
2022-10-15T07:50:44.713Z,101244.02
2022-10-15T07:53:33.767Z,101249.88
2022-10-15T07:56:21.856Z,101245.64
2022-10-15T07:59:09.805Z,101251.88
2022-10-15T08:01:57.847Z,101253.59
2022-10-15T08:04:46.151Z,101249.97
2022-10-15T08:07:34.628Z,101251.67
2022-10-15T08:10:23.395Z,101255.41
2022-10-15T08:13:11.080Z,101258.35
2022-10-15T08:16:00.325Z,101253.87
2022-10-15T08:18:49.195Z,101248.58
2022-10-15T08:21:38.535Z,101256.00
2022-10-15T08:24:26.795Z,101259.72
2022-10-15T08:27:15.331Z,101251.48
2022-10-15T08:30:04.154Z,101255.80
2022-10-15T08:32:52.819Z,101249.20
2022-10-15T08:35:43.720Z,101261.55
2022-10-15T08:38:33.772Z,101268.73
2022-10-15T08:45:35.772Z,101273.22
2022-10-15T08:48:30.855Z,101272.41
2022-10-15T08:51:23.227Z,101270.71
2022-10-15T08:54:17.631Z,101265.91
2022-10-15T08:57:44.888Z,101262.98
2022-10-15T09:00:52.108Z,101262.11
2022-10-15T09:04:15.078Z,101258.09
2022-10-15T09:07:21.699Z,101257.56
2022-10-15T09:10:18.287Z,101262.47
2022-10-15T09:13:13.960Z,101261.97
2022-10-15T09:16:13.597Z,101258.61
2022-10-15T09:19:12.550Z,101254.41
2022-10-15T09:22:03.290Z,101255.77
2022-10-15T09:24:52.553Z,101262.51
2022-10-15T09:27:40.962Z,101251.68
2022-10-15T09:30:37.816Z,101255.52
2022-10-15T09:33:38.798Z,101251.86
2022-10-15T09:36:40.258Z,101251.80
2022-10-15T09:39:46.734Z,101254.55
2022-10-15T09:42:38.135Z,101250.52
2022-10-15T09:45:26.017Z,101244.69
2022-10-15T09:48:18.320Z,101242.91
2022-10-15T09:51:16.797Z,101241.55
2022-10-15T09:54:16.493Z,101234.59
2022-10-15T09:57:09.863Z,101236.50
2022-10-15T10:00:00.780Z,101231.02
2022-10-15T10:03:06.712Z,101229.87
2022-10-15T10:06:02.855Z,101222.52
2022-10-15T10:09:00.615Z,101232.50
2022-10-15T10:11:53.646Z,101223.74
2022-10-15T10:14:46.988Z,101219.28
2022-10-15T10:17:35.125Z,101211.70
2022-10-15T10:20:24.868Z,101219.47
2022-10-15T10:23:24.077Z,101217.23
2022-10-15T10:26:15.382Z,101220.63
2022-10-15T10:29:15.783Z,101211.39
2022-10-15T10:32:21.410Z,101209.14
2022-10-15T10:35:22.798Z,101213.37
2022-10-15T10:38:23.804Z,101209.25
2022-10-15T10:41:12.563Z,101205.94
2022-10-15T10:44:00.615Z,101201.86
2022-10-15T10:47:06.771Z,101197.95
2022-10-15T10:49:57.321Z,101193.72
2022-10-15T10:52:45.463Z,101204.98
2022-10-15T10:55:39.345Z,101202.65
2022-10-15T10:58:33.366Z,101195.95
2022-10-15T11:01:20.634Z,101195.95
2022-10-15T11:04:15.461Z,101191.28
2022-10-15T11:07:17.005Z,101189.97
2022-10-15T11:10:16.883Z,101191.13
2022-10-15T11:13:26.447Z,101186.69
2022-10-15T11:16:30.215Z,101183.41
2022-10-15T11:19:54.546Z,101187.63
2022-10-15T11:22:48.202Z,101183.50
2022-10-15T11:25:46.993Z,101185.84
2022-10-15T11:28:50.507Z,101183.83
2022-10-15T11:32:01.718Z,101178.27
2022-10-15T11:35:40.804Z,101176.98
2022-10-15T11:38:39.758Z,101171.10
2022-10-15T11:41:40.199Z,101169.88
2022-10-15T11:44:47.856Z,101161.38
2022-10-15T11:47:47.762Z,101163.45
2022-10-15T11:50:44.762Z,101159.78
2022-10-15T11:54:06.517Z,101158.23
2022-10-15T11:56:59.463Z,101154.78
2022-10-15T11:59:55.868Z,101154.06
2022-10-15T12:02:45.374Z,101154.37
2022-10-15T12:05:38.916Z,101157.64
2022-10-15T12:08:30.863Z,101170.08
2022-10-15T12:11:24.236Z,101159.86
2022-10-15T12:14:22.375Z,101164.12
2022-10-15T12:17:22.341Z,101172.05
2022-10-15T12:20:16.423Z,101168.02
2022-10-15T12:23:05.093Z,101166.47
2022-10-15T12:25:54.613Z,101163.28
2022-10-15T12:28:50.568Z,101162.22
2022-10-15T12:31:48.031Z,101162.80
2022-10-15T12:34:41.519Z,101162.30
2022-10-15T12:37:33.913Z,101165.18
2022-10-15T12:40:29.496Z,101168.02
2022-10-15T12:43:20.858Z,101156.38
2022-10-15T12:46:10.770Z,101155.48
2022-10-15T12:48:58.805Z,101161.11
2022-10-15T12:51:46.796Z,101163.98
2022-10-15T12:54:41.453Z,101169.02
2022-10-15T12:58:08.093Z,101173.73
2022-10-15T13:00:56.820Z,101169.76
2022-10-15T13:03:52.672Z,101186.22
2022-10-15T13:06:40.708Z,101178.86
2022-10-15T13:09:31.773Z,101186.37
2022-10-15T13:12:26.381Z,101184.95
2022-10-15T13:15:16.948Z,101183.09
2022-10-15T13:18:11.101Z,101185.78
2022-10-15T13:23:50.397Z,101186.59
2022-10-15T13:26:39.188Z,101176.86
2022-10-15T13:29:28.547Z,101181.45
2022-10-15T13:32:16.975Z,101181.09
2022-10-15T13:35:12.226Z,101178.06
2022-10-15T13:38:03.133Z,101183.10
2022-10-15T13:40:53.804Z,101182.99
2022-10-15T13:43:54.497Z,101176.11
2022-10-15T13:46:42.675Z,101177.27
2022-10-15T13:49:31.013Z,101175.30
2022-10-15T13:52:19.632Z,101173.30
2022-10-15T13:55:17.106Z,101164.05
2022-10-15T13:58:17.446Z,101166.63
2022-10-15T14:01:10.030Z,101168.63
2022-10-15T14:03:57.859Z,101163.55
2022-10-15T14:06:56.925Z,101161.46
2022-10-15T14:09:47.988Z,101162.61
2022-10-15T14:12:36.321Z,101160.85
2022-10-15T14:15:57.385Z,101160.39
2022-10-15T14:18:49.370Z,101155.09
2022-10-15T14:21:46.904Z,101156.83
2022-10-15T14:24:38.007Z,101157.75
2022-10-15T14:27:28.530Z,101157.87
2022-10-15T14:30:25.132Z,101154.22
2022-10-15T14:33:31.637Z,101155.13
2022-10-15T14:36:29.986Z,101159.58
2022-10-15T14:39:29.954Z,101152.18
2022-10-15T14:42:31.390Z,101145.27
2022-10-15T14:45:25.971Z,101149.30
2022-10-15T14:48:20.720Z,101148.56
2022-10-15T14:51:17.849Z,101145.73
2022-10-15T14:54:06.587Z,101143.36
2022-10-15T14:56:55.325Z,101145.53
2022-10-15T14:59:44.710Z,101155.33
2022-10-15T15:02:32.493Z,101143.84
2022-10-15T15:05:24.410Z,101150.11
2022-10-15T15:08:12.747Z,101153.70
2022-10-15T15:11:04.350Z,101153.75
2022-10-15T15:13:54.879Z,101150.32
2022-10-15T15:16:43.274Z,101157.62
2022-10-15T15:19:32.092Z,101153.39
2022-10-15T15:22:25.662Z,101148.06
2022-10-15T15:25:19.303Z,101147.55
2022-10-15T15:28:14.162Z,101158.54
2022-10-15T15:31:05.905Z,101158.81
2022-10-15T15:33:54.349Z,101153.92
2022-10-15T15:36:43.090Z,101157.32
2022-10-15T15:39:31.358Z,101158.63
2022-10-15T15:42:22.970Z,101162.84
2022-10-15T15:45:20.300Z,101171.59
2022-10-15T15:48:08.287Z,101168.76
2022-10-15T15:51:04.340Z,101169.44
2022-10-15T15:53:52.615Z,101176.52
2022-10-15T15:56:41.174Z,101188.91
2022-10-15T15:59:29.286Z,101195.12
2022-10-15T16:02:17.628Z,101189.61
2022-10-15T16:05:07.613Z,101193.97
2022-10-15T16:07:56.644Z,101195.84
2022-10-15T16:10:45.332Z,101192.14
2022-10-15T16:13:34.201Z,101195.67
2022-10-15T16:16:24.014Z,101200.63
2022-10-15T16:19:12.149Z,101206.59
2022-10-15T16:22:00.489Z,101203.91
2022-10-15T16:24:49.255Z,101203.64
2022-10-15T16:27:37.499Z,101209.59
2022-10-15T16:30:25.719Z,101215.53
2022-10-15T16:33:14.558Z,101215.30
2022-10-15T16:36:03.154Z,101218.34
2022-10-15T16:38:51.227Z,101217.08
2022-10-15T16:41:39.222Z,101217.66
2022-10-15T16:44:27.564Z,101217.38
2022-10-15T16:47:16.207Z,101225.55
2022-10-15T16:50:05.259Z,101222.63
2022-10-15T16:52:53.666Z,101225.63
2022-10-15T16:55:41.709Z,101234.78
2022-10-15T16:58:31.202Z,101236.97
2022-10-15T17:01:22.435Z,101236.48
2022-10-15T17:04:10.663Z,101232.48
2022-10-15T17:06:59.017Z,101241.84
2022-10-15T17:12:40.596Z,101244.32
2022-10-15T17:15:28.923Z,101246.48
2022-10-15T17:18:16.984Z,101248.45
2022-10-15T17:21:07.368Z,101247.09
2022-10-15T17:23:57.558Z,101246.77
2022-10-15T17:26:47.558Z,101252.22
2022-10-15T17:29:35.894Z,101261.13
2022-10-15T17:32:25.655Z,101259.58
2022-10-15T17:35:14.918Z,101269.52
2022-10-15T17:38:03.189Z,101268.75
2022-10-15T17:40:51.434Z,101266.17
2022-10-15T17:43:40.330Z,101263.44
2022-10-15T17:46:30.105Z,101264.33
2022-10-15T17:49:18.943Z,101268.94
2022-10-15T17:52:06.907Z,101273.14
2022-10-15T17:54:55.153Z,101273.22
2022-10-15T17:57:43.664Z,101280.27
2022-10-15T18:00:31.857Z,101278.69
2022-10-15T18:03:20.471Z,101276.09
2022-10-15T18:06:12.197Z,101278.83
2022-10-15T18:09:00.478Z,101285.22
2022-10-15T18:11:49.963Z,101285.47
2022-10-15T18:14:38.399Z,101282.03
2022-10-15T18:17:27.405Z,101280.92
2022-10-15T18:20:16.968Z,101289.41
2022-10-15T18:23:06.610Z,101284.63
2022-10-15T18:26:02.318Z,101285.98
2022-10-15T18:28:53.742Z,101296.97
2022-10-15T18:31:42.037Z,101295.83
2022-10-15T18:34:32.669Z,101291.02
2022-10-15T18:37:20.621Z,101299.34
2022-10-15T18:40:11.317Z,101293.91
2022-10-15T18:42:59.262Z,101294.37
2022-10-15T18:45:51.142Z,101304.89
2022-10-15T18:48:39.367Z,101303.73
2022-10-15T18:51:28.355Z,101314.89
2022-10-15T18:54:16.270Z,101300.30
2022-10-15T18:57:05.198Z,101307.30
2022-10-15T19:02:41.417Z,101304.16
2022-10-15T19:05:29.601Z,101297.72
2022-10-15T19:08:20.711Z,101302.87
2022-10-15T19:11:09.501Z,101306.05
2022-10-15T19:13:59.363Z,101311.84
2022-10-15T19:16:49.064Z,101307.21
2022-10-15T19:19:38.316Z,101317.50
2022-10-15T19:22:28.428Z,101323.48
2022-10-15T19:25:18.072Z,101330.30
2022-10-15T19:28:06.673Z,101324.67
2022-10-15T19:31:00.268Z,101329.65
2022-10-15T19:33:48.461Z,101333.95
2022-10-15T19:36:40.007Z,101335.28
2022-10-15T19:39:28.557Z,101334.95
2022-10-15T19:42:18.444Z,101342.57
2022-10-15T19:45:07.803Z,101349.02
2022-10-15T19:48:01.442Z,101338.25
2022-10-15T19:50:50.505Z,101340.39
2022-10-15T19:53:39.549Z,101347.19
2022-10-15T19:56:28.454Z,101344.86
2022-10-15T19:59:16.845Z,101341.02
2022-10-15T20:02:05.087Z,101344.17
2022-10-15T20:04:53.697Z,101350.94
2022-10-15T20:07:42.034Z,101351.59
2022-10-15T20:10:30.654Z,101350.25
2022-10-15T20:13:20.418Z,101352.73
2022-10-15T20:16:11.017Z,101347.75
2022-10-15T20:19:00.623Z,101356.16
2022-10-15T20:24:38.184Z,101355.14
2022-10-15T20:27:26.682Z,101362.42
2022-10-15T20:30:15.365Z,101358.25
2022-10-15T20:33:03.799Z,101354.27
2022-10-15T20:35:51.627Z,101371.30
2022-10-15T20:38:40.296Z,101367.30
2022-10-15T20:41:28.301Z,101368.60
2022-10-15T20:44:17.069Z,101373.55
2022-10-15T20:47:08.500Z,101369.05
2022-10-15T20:49:56.677Z,101371.16
2022-10-15T20:52:46.018Z,101373.31
2022-10-15T20:55:35.399Z,101372.78
2022-10-15T20:58:24.177Z,101375.73
2022-10-15T21:01:12.561Z,101368.27
2022-10-15T21:04:01.093Z,101368.59
2022-10-15T21:06:49.469Z,101365.23
2022-10-15T21:09:38.087Z,101372.50
2022-10-15T21:12:26.342Z,101371.01
2022-10-15T21:15:15.043Z,101377.42
2022-10-15T21:18:03.766Z,101380.38
2022-10-15T21:20:51.509Z,101391.14
2022-10-15T21:23:41.499Z,101387.81
2022-10-15T21:26:29.559Z,101392.73
2022-10-15T21:29:18.103Z,101389.05
2022-10-15T21:32:06.911Z,101388.50
2022-10-15T21:34:54.989Z,101392.30
2022-10-15T21:37:43.312Z,101391.77
2022-10-15T21:40:31.328Z,101402.65
2022-10-15T21:43:19.948Z,101396.84
2022-10-15T21:46:10.006Z,101397.15
2022-10-15T21:48:59.510Z,101392.16
2022-10-15T21:51:47.751Z,101392.47
2022-10-15T21:54:35.929Z,101388.45
2022-10-15T21:57:23.920Z,101391.23
2022-10-15T22:00:16.494Z,101388.22
2022-10-15T22:03:05.224Z,101386.04
2022-10-15T22:05:53.531Z,101391.08
2022-10-15T22:08:42.505Z,101388.91
2022-10-15T22:11:33.078Z,101392.14
2022-10-15T22:14:21.164Z,101398.71
2022-10-15T22:17:09.119Z,101404.98
2022-10-15T22:19:57.149Z,101405.11
2022-10-15T22:22:45.277Z,101414.19
2022-10-15T22:25:33.779Z,101415.16
2022-10-15T22:28:21.742Z,101412.66
2022-10-15T22:31:12.505Z,101417.13
2022-10-15T22:34:01.862Z,101419.08
2022-10-15T22:36:50.404Z,101430.64
2022-10-15T22:39:39.318Z,101431.61
2022-10-15T22:42:27.948Z,101436.05
2022-10-15T22:45:16.806Z,101436.22
2022-10-15T22:48:04.978Z,101440.66
2022-10-15T22:50:57.553Z,101438.86
2022-10-15T22:53:45.576Z,101427.60
2022-10-15T22:56:34.358Z,101434.69
2022-10-15T22:59:22.674Z,101430.54
2022-10-15T23:02:10.880Z,101439.45
2022-10-15T23:04:59.097Z,101432.50
2022-10-15T23:07:47.488Z,101439.73
2022-10-15T23:10:35.574Z,101439.87
2022-10-15T23:13:23.743Z,101445.31
2022-10-15T23:16:15.402Z,101439.34
2022-10-15T23:19:06.799Z,101446.59
2022-10-15T23:21:56.244Z,101444.23
2022-10-15T23:24:44.459Z,101455.91
2022-10-15T23:27:32.223Z,101449.12
2022-10-15T23:30:25.116Z,101449.41
2022-10-15T23:33:13.528Z,101453.16
2022-10-15T23:36:04.140Z,101450.80
2022-10-15T23:38:53.229Z,101454.58
2022-10-15T23:41:41.651Z,101467.10
2022-10-15T23:44:29.871Z,101463.77
2022-10-15T23:47:18.078Z,101468.49
2022-10-15T23:50:07.652Z,101472.27
2022-10-15T23:52:56.906Z,101466.42
2022-10-15T23:55:45.271Z,101475.48
2022-10-15T23:58:34.339Z,101474.09
